sensor_id;sensor_type;location;lat;lon;timestamp;P1;durP1;ratioP1;P2;durP2;ratioP2
33279;SDS011;20403;43.114;12.434;2023-04-29T00:02:17;7.55;;;1.60;;
33279;SDS011;20403;43.114;12.434;2023-04-29T00:04:43;5.18;;;1.90;;
33279;SDS011;20403;43.114;12.434;2023-04-29T00:07:08;6.25;;;2.08;;
33279;SDS011;20403;43.114;12.434;2023-04-29T00:09:34;6.10;;;1.58;;
33279;SDS011;20403;43.114;12.434;2023-04-29T00:12:00;9.68;;;2.00;;
33279;SDS011;20403;43.114;12.434;2023-04-29T00:14:26;7.10;;;1.70;;
33279;SDS011;20403;43.114;12.434;2023-04-29T00:16:52;5.25;;;1.85;;
33279;SDS011;20403;43.114;12.434;2023-04-29T00:19:17;7.70;;;2.08;;
33279;SDS011;20403;43.114;12.434;2023-04-29T00:21:44;9.02;;;1.90;;
33279;SDS011;20403;43.114;12.434;2023-04-29T00:24:09;7.03;;;1.88;;
33279;SDS011;20403;43.114;12.434;2023-04-29T00:26:35;5.38;;;1.73;;
33279;SDS011;20403;43.114;12.434;2023-04-29T00:29:00;5.53;;;1.60;;
33279;SDS011;20403;43.114;12.434;2023-04-29T00:31:25;7.18;;;1.92;;
33279;SDS011;20403;43.114;12.434;2023-04-29T00:33:51;5.60;;;1.60;;
33279;SDS011;20403;43.114;12.434;2023-04-29T00:36:16;4.75;;;1.50;;
33279;SDS011;20403;43.114;12.434;2023-04-29T00:38:42;7.60;;;1.60;;
33279;SDS011;20403;43.114;12.434;2023-04-29T00:41:07;5.95;;;2.05;;
33279;SDS011;20403;43.114;12.434;2023-04-29T00:43:33;8.52;;;2.08;;
33279;SDS011;20403;43.114;12.434;2023-04-29T00:45:58;5.32;;;2.08;;
33279;SDS011;20403;43.114;12.434;2023-04-29T00:48:24;7.05;;;1.45;;
33279;SDS011;20403;43.114;12.434;2023-04-29T00:50:49;10.35;;;2.28;;
33279;SDS011;20403;43.114;12.434;2023-04-29T00:53:15;5.38;;;1.58;;
33279;SDS011;20403;43.114;12.434;2023-04-29T00:55:41;5.57;;;1.63;;
33279;SDS011;20403;43.114;12.434;2023-04-29T00:58:08;9.70;;;2.03;;
33279;SDS011;20403;43.114;12.434;2023-04-29T01:00:34;4.07;;;1.67;;
33279;SDS011;20403;43.114;12.434;2023-04-29T01:03:01;6.07;;;1.75;;
33279;SDS011;20403;43.114;12.434;2023-04-29T01:05:26;4.57;;;1.67;;
33279;SDS011;20403;43.114;12.434;2023-04-29T01:13:29;4.90;;;1.45;;
33279;SDS011;20403;43.114;12.434;2023-04-29T01:18:41;5.78;;;1.95;;
33279;SDS011;20403;43.114;12.434;2023-04-29T01:21:10;5.55;;;1.38;;
33279;SDS011;20403;43.114;12.434;2023-04-29T01:23:35;10.43;;;1.40;;
33279;SDS011;20403;43.114;12.434;2023-04-29T01:26:00;5.70;;;1.90;;
33279;SDS011;20403;43.114;12.434;2023-04-29T01:28:41;4.70;;;1.90;;
33279;SDS011;20403;43.114;12.434;2023-04-29T01:31:40;3.50;;;1.60;;
33279;SDS011;20403;43.114;12.434;2023-04-29T01:34:25;3.67;;;1.60;;
33279;SDS011;20403;43.114;12.434;2023-04-29T01:37:06;4.78;;;1.60;;
33279;SDS011;20403;43.114;12.434;2023-04-29T01:39:45;5.13;;;1.60;;
33279;SDS011;20403;43.114;12.434;2023-04-29T01:42:19;13.05;;;1.90;;
33279;SDS011;20403;43.114;12.434;2023-04-29T01:44:50;8.52;;;1.48;;
33279;SDS011;20403;43.114;12.434;2023-04-29T01:47:19;4.68;;;1.70;;
33279;SDS011;20403;43.114;12.434;2023-04-29T01:49:45;8.88;;;2.00;;
33279;SDS011;20403;43.114;12.434;2023-04-29T01:52:11;6.38;;;1.98;;
33279;SDS011;20403;43.114;12.434;2023-04-29T01:54:37;4.18;;;1.50;;
33279;SDS011;20403;43.114;12.434;2023-04-29T01:57:02;4.75;;;1.48;;
33279;SDS011;20403;43.114;12.434;2023-04-29T01:59:28;3.72;;;1.42;;
33279;SDS011;20403;43.114;12.434;2023-04-29T02:01:55;6.80;;;1.40;;
33279;SDS011;20403;43.114;12.434;2023-04-29T02:04:22;5.78;;;1.75;;
33279;SDS011;20403;43.114;12.434;2023-04-29T02:06:49;9.25;;;1.50;;
33279;SDS011;20403;43.114;12.434;2023-04-29T02:09:14;4.63;;;1.45;;
33279;SDS011;20403;43.114;12.434;2023-04-29T02:11:40;4.13;;;1.48;;
33279;SDS011;20403;43.114;12.434;2023-04-29T02:14:05;5.65;;;1.35;;
33279;SDS011;20403;43.114;12.434;2023-04-29T02:16:30;7.07;;;1.55;;
33279;SDS011;20403;43.114;12.434;2023-04-29T02:18:56;4.18;;;1.80;;
33279;SDS011;20403;43.114;12.434;2023-04-29T02:21:21;7.18;;;2.00;;
33279;SDS011;20403;43.114;12.434;2023-04-29T02:23:47;3.08;;;1.45;;
33279;SDS011;20403;43.114;12.434;2023-04-29T02:26:12;6.22;;;1.60;;
33279;SDS011;20403;43.114;12.434;2023-04-29T02:28:39;3.63;;;1.45;;
33279;SDS011;20403;43.114;12.434;2023-04-29T02:31:04;4.45;;;1.30;;
33279;SDS011;20403;43.114;12.434;2023-04-29T02:33:30;3.03;;;1.10;;
33279;SDS011;20403;43.114;12.434;2023-04-29T02:35:57;5.22;;;1.45;;
33279;SDS011;20403;43.114;12.434;2023-04-29T02:38:23;6.88;;;1.75;;
33279;SDS011;20403;43.114;12.434;2023-04-29T02:40:49;4.35;;;1.65;;
33279;SDS011;20403;43.114;12.434;2023-04-29T02:43:15;5.15;;;1.40;;
33279;SDS011;20403;43.114;12.434;2023-04-29T02:45:40;4.75;;;1.67;;
33279;SDS011;20403;43.114;12.434;2023-04-29T02:48:06;4.60;;;1.20;;
33279;SDS011;20403;43.114;12.434;2023-04-29T02:50:31;5.03;;;1.40;;
33279;SDS011;20403;43.114;12.434;2023-04-29T02:52:57;6.18;;;1.67;;
33279;SDS011;20403;43.114;12.434;2023-04-29T02:55:22;3.13;;;1.58;;
33279;SDS011;20403;43.114;12.434;2023-04-29T02:57:48;7.10;;;1.48;;
33279;SDS011;20403;43.114;12.434;2023-04-29T03:00:13;6.20;;;1.30;;
33279;SDS011;20403;43.114;12.434;2023-04-29T03:02:38;4.25;;;1.20;;
33279;SDS011;20403;43.114;12.434;2023-04-29T03:05:04;4.07;;;1.15;;
33279;SDS011;20403;43.114;12.434;2023-04-29T03:07:30;5.32;;;1.27;;
33279;SDS011;20403;43.114;12.434;2023-04-29T03:09:56;6.70;;;1.88;;
33279;SDS011;20403;43.114;12.434;2023-04-29T03:12:21;3.50;;;1.17;;
33279;SDS011;20403;43.114;12.434;2023-04-29T03:14:47;7.43;;;1.45;;
33279;SDS011;20403;43.114;12.434;2023-04-29T03:17:13;4.22;;;1.38;;
33279;SDS011;20403;43.114;12.434;2023-04-29T03:19:39;5.22;;;1.48;;
33279;SDS011;20403;43.114;12.434;2023-04-29T03:22:05;4.25;;;1.60;;
33279;SDS011;20403;43.114;12.434;2023-04-29T03:24:32;5.13;;;1.33;;
33279;SDS011;20403;43.114;12.434;2023-04-29T03:26:57;3.58;;;0.90;;
33279;SDS011;20403;43.114;12.434;2023-04-29T03:29:24;4.63;;;1.20;;
33279;SDS011;20403;43.114;12.434;2023-04-29T03:31:51;2.30;;;1.23;;
33279;SDS011;20403;43.114;12.434;2023-04-29T03:34:17;4.18;;;1.42;;
33279;SDS011;20403;43.114;12.434;2023-04-29T03:36:42;8.80;;;1.38;;
33279;SDS011;20403;43.114;12.434;2023-04-29T03:39:07;2.60;;;1.20;;
33279;SDS011;20403;43.114;12.434;2023-04-29T03:41:33;3.45;;;1.35;;
33279;SDS011;20403;43.114;12.434;2023-04-29T03:43:58;4.88;;;1.15;;
33279;SDS011;20403;43.114;12.434;2023-04-29T03:46:27;3.95;;;1.15;;
33279;SDS011;20403;43.114;12.434;2023-04-29T03:48:53;3.05;;;1.38;;
33279;SDS011;20403;43.114;12.434;2023-04-29T03:51:24;5.88;;;1.55;;
33279;SDS011;20403;43.114;12.434;2023-04-29T03:53:51;9.07;;;1.70;;
33279;SDS011;20403;43.114;12.434;2023-04-29T03:56:18;3.83;;;1.42;;
33279;SDS011;20403;43.114;12.434;2023-04-29T03:58:43;3.92;;;1.27;;
33279;SDS011;20403;43.114;12.434;2023-04-29T04:01:10;3.58;;;1.08;;
33279;SDS011;20403;43.114;12.434;2023-04-29T04:03:36;4.00;;;1.20;;
33279;SDS011;20403;43.114;12.434;2023-04-29T04:06:01;5.45;;;1.35;;
33279;SDS011;20403;43.114;12.434;2023-04-29T04:08:26;7.28;;;1.42;;
33279;SDS011;20403;43.114;12.434;2023-04-29T04:10:52;2.85;;;1.27;;
33279;SDS011;20403;43.114;12.434;2023-04-29T04:13:17;4.47;;;1.33;;
33279;SDS011;20403;43.114;12.434;2023-04-29T04:15:48;4.63;;;1.65;;
33279;SDS011;20403;43.114;12.434;2023-04-29T04:18:14;2.80;;;1.20;;
33279;SDS011;20403;43.114;12.434;2023-04-29T04:20:40;1.83;;;0.80;;
33279;SDS011;20403;43.114;12.434;2023-04-29T04:23:05;3.05;;;1.02;;
33279;SDS011;20403;43.114;12.434;2023-04-29T04:25:30;5.45;;;1.00;;
33279;SDS011;20403;43.114;12.434;2023-04-29T04:27:56;3.08;;;1.20;;
33279;SDS011;20403;43.114;12.434;2023-04-29T04:30:21;3.47;;;1.08;;
33279;SDS011;20403;43.114;12.434;2023-04-29T04:32:46;12.45;;;1.83;;
33279;SDS011;20403;43.114;12.434;2023-04-29T04:35:12;9.95;;;2.13;;
33279;SDS011;20403;43.114;12.434;2023-04-29T04:37:37;4.88;;;1.65;;
33279;SDS011;20403;43.114;12.434;2023-04-29T04:40:03;4.88;;;1.30;;
33279;SDS011;20403;43.114;12.434;2023-04-29T04:42:28;4.88;;;1.48;;
33279;SDS011;20403;43.114;12.434;2023-04-29T04:44:54;5.85;;;1.55;;
33279;SDS011;20403;43.114;12.434;2023-04-29T04:47:19;6.32;;;1.80;;
33279;SDS011;20403;43.114;12.434;2023-04-29T04:49:45;5.63;;;1.38;;
33279;SDS011;20403;43.114;12.434;2023-04-29T04:52:10;8.05;;;1.88;;
33279;SDS011;20403;43.114;12.434;2023-04-29T04:54:36;3.47;;;1.30;;
33279;SDS011;20403;43.114;12.434;2023-04-29T04:57:02;2.42;;;0.93;;
33279;SDS011;20403;43.114;12.434;2023-04-29T04:59:30;4.13;;;1.13;;
33279;SDS011;20403;43.114;12.434;2023-04-29T05:01:55;3.97;;;1.13;;
33279;SDS011;20403;43.114;12.434;2023-04-29T05:04:21;10.10;;;2.00;;
33279;SDS011;20403;43.114;12.434;2023-04-29T05:06:46;2.75;;;1.30;;
33279;SDS011;20403;43.114;12.434;2023-04-29T05:09:12;3.78;;;1.25;;
33279;SDS011;20403;43.114;12.434;2023-04-29T05:11:37;1.90;;;0.90;;
33279;SDS011;20403;43.114;12.434;2023-04-29T05:14:02;2.65;;;1.33;;
33279;SDS011;20403;43.114;12.434;2023-04-29T05:16:28;4.07;;;1.20;;
33279;SDS011;20403;43.114;12.434;2023-04-29T05:18:53;20.85;;;2.42;;
33279;SDS011;20403;43.114;12.434;2023-04-29T05:21:19;4.82;;;1.45;;
33279;SDS011;20403;43.114;12.434;2023-04-29T05:23:44;4.75;;;1.10;;
33279;SDS011;20403;43.114;12.434;2023-04-29T05:26:09;11.05;;;2.05;;
33279;SDS011;20403;43.114;12.434;2023-04-29T05:28:35;6.90;;;1.80;;
33279;SDS011;20403;43.114;12.434;2023-04-29T05:31:01;6.47;;;1.65;;
33279;SDS011;20403;43.114;12.434;2023-04-29T05:33:26;4.90;;;1.65;;
33279;SDS011;20403;43.114;12.434;2023-04-29T05:35:52;8.52;;;1.73;;
33279;SDS011;20403;43.114;12.434;2023-04-29T05:38:17;8.88;;;1.17;;
33279;SDS011;20403;43.114;12.434;2023-04-29T05:40:43;6.70;;;1.73;;
33279;SDS011;20403;43.114;12.434;2023-04-29T05:43:08;9.02;;;1.98;;
33279;SDS011;20403;43.114;12.434;2023-04-29T05:45:34;7.43;;;2.05;;
33279;SDS011;20403;43.114;12.434;2023-04-29T05:47:59;11.93;;;2.13;;
33279;SDS011;20403;43.114;12.434;2023-04-29T05:50:24;6.63;;;2.33;;
33279;SDS011;20403;43.114;12.434;2023-04-29T05:52:50;7.95;;;2.10;;
33279;SDS011;20403;43.114;12.434;2023-04-29T05:55:15;13.50;;;2.42;;
33279;SDS011;20403;43.114;12.434;2023-04-29T05:57:41;9.93;;;1.92;;
33279;SDS011;20403;43.114;12.434;2023-04-29T06:00:07;9.48;;;2.25;;
33279;SDS011;20403;43.114;12.434;2023-04-29T06:02:32;12.68;;;2.45;;
33279;SDS011;20403;43.114;12.434;2023-04-29T06:04:58;10.23;;;1.98;;
33279;SDS011;20403;43.114;12.434;2023-04-29T06:07:23;6.15;;;1.52;;
33279;SDS011;20403;43.114;12.434;2023-04-29T06:09:49;5.88;;;1.83;;
33279;SDS011;20403;43.114;12.434;2023-04-29T06:12:15;11.43;;;2.22;;
33279;SDS011;20403;43.114;12.434;2023-04-29T06:14:40;13.13;;;2.55;;
33279;SDS011;20403;43.114;12.434;2023-04-29T06:17:06;12.70;;;2.22;;
33279;SDS011;20403;43.114;12.434;2023-04-29T06:19:31;8.57;;;1.85;;
33279;SDS011;20403;43.114;12.434;2023-04-29T06:21:57;7.63;;;2.15;;
33279;SDS011;20403;43.114;12.434;2023-04-29T06:24:23;6.57;;;1.85;;
33279;SDS011;20403;43.114;12.434;2023-04-29T06:26:49;7.40;;;1.77;;
33279;SDS011;20403;43.114;12.434;2023-04-29T06:29:14;9.77;;;2.22;;
33279;SDS011;20403;43.114;12.434;2023-04-29T06:31:40;8.32;;;1.52;;
33279;SDS011;20403;43.114;12.434;2023-04-29T06:34:05;8.18;;;2.28;;
33279;SDS011;20403;43.114;12.434;2023-04-29T06:36:31;6.05;;;1.88;;
33279;SDS011;20403;43.114;12.434;2023-04-29T06:38:57;4.50;;;1.60;;
33279;SDS011;20403;43.114;12.434;2023-04-29T06:41:22;6.88;;;1.60;;
33279;SDS011;20403;43.114;12.434;2023-04-29T06:43:47;11.15;;;1.98;;
33279;SDS011;20403;43.114;12.434;2023-04-29T06:46:13;5.68;;;2.05;;
33279;SDS011;20403;43.114;12.434;2023-04-29T06:48:38;9.63;;;3.88;;
33279;SDS011;20403;43.114;12.434;2023-04-29T06:51:03;13.10;;;4.82;;
33279;SDS011;20403;43.114;12.434;2023-04-29T06:53:29;13.13;;;4.82;;
33279;SDS011;20403;43.114;12.434;2023-04-29T06:55:54;19.00;;;4.47;;
33279;SDS011;20403;43.114;12.434;2023-04-29T06:58:20;10.80;;;3.20;;
33279;SDS011;20403;43.114;12.434;2023-04-29T07:00:46;7.45;;;2.25;;
33279;SDS011;20403;43.114;12.434;2023-04-29T07:03:13;5.18;;;2.58;;
33279;SDS011;20403;43.114;12.434;2023-04-29T07:05:39;5.53;;;2.03;;
33279;SDS011;20403;43.114;12.434;2023-04-29T07:08:06;3.20;;;1.38;;
33279;SDS011;20403;43.114;12.434;2023-04-29T07:10:32;4.72;;;1.90;;
33279;SDS011;20403;43.114;12.434;2023-04-29T07:12:58;7.28;;;2.20;;
33279;SDS011;20403;43.114;12.434;2023-04-29T07:15:25;3.20;;;1.60;;
33279;SDS011;20403;43.114;12.434;2023-04-29T07:17:51;7.63;;;2.80;;
33279;SDS011;20403;43.114;12.434;2023-04-29T07:20:16;8.02;;;2.40;;
33279;SDS011;20403;43.114;12.434;2023-04-29T07:22:42;6.25;;;2.47;;
33279;SDS011;20403;43.114;12.434;2023-04-29T07:25:07;10.43;;;2.28;;
33279;SDS011;20403;43.114;12.434;2023-04-29T07:27:34;6.03;;;2.38;;
33279;SDS011;20403;43.114;12.434;2023-04-29T07:30:00;4.05;;;1.92;;
33279;SDS011;20403;43.114;12.434;2023-04-29T07:32:25;4.50;;;1.90;;
33279;SDS011;20403;43.114;12.434;2023-04-29T07:34:51;7.88;;;3.53;;
33279;SDS011;20403;43.114;12.434;2023-04-29T07:37:17;6.75;;;2.97;;
33279;SDS011;20403;43.114;12.434;2023-04-29T07:39:42;6.93;;;3.35;;
33279;SDS011;20403;43.114;12.434;2023-04-29T07:42:07;5.28;;;1.73;;
33279;SDS011;20403;43.114;12.434;2023-04-29T07:44:33;8.32;;;2.13;;
33279;SDS011;20403;43.114;12.434;2023-04-29T07:46:58;3.55;;;1.30;;
33279;SDS011;20403;43.114;12.434;2023-04-29T07:49:24;6.00;;;1.85;;
33279;SDS011;20403;43.114;12.434;2023-04-29T07:51:50;6.22;;;1.63;;
33279;SDS011;20403;43.114;12.434;2023-04-29T07:54:15;4.15;;;1.73;;
33279;SDS011;20403;43.114;12.434;2023-04-29T07:56:41;2.85;;;1.45;;
33279;SDS011;20403;43.114;12.434;2023-04-29T07:59:06;8.98;;;2.00;;
33279;SDS011;20403;43.114;12.434;2023-04-29T08:01:31;5.00;;;1.80;;
33279;SDS011;20403;43.114;12.434;2023-04-29T08:03:57;4.03;;;1.60;;
33279;SDS011;20403;43.114;12.434;2023-04-29T08:06:22;4.47;;;1.40;;
33279;SDS011;20403;43.114;12.434;2023-04-29T08:08:48;6.72;;;1.48;;
33279;SDS011;20403;43.114;12.434;2023-04-29T08:11:16;3.72;;;1.52;;
33279;SDS011;20403;43.114;12.434;2023-04-29T08:13:42;8.75;;;1.50;;
33279;SDS011;20403;43.114;12.434;2023-04-29T08:16:08;5.38;;;1.25;;
33279;SDS011;20403;43.114;12.434;2023-04-29T08:18:34;4.65;;;1.40;;
33279;SDS011;20403;43.114;12.434;2023-04-29T08:21:00;7.10;;;1.10;;
33279;SDS011;20403;43.114;12.434;2023-04-29T08:23:26;6.88;;;1.25;;
33279;SDS011;20403;43.114;12.434;2023-04-29T08:25:51;2.28;;;0.93;;
33279;SDS011;20403;43.114;12.434;2023-04-29T08:28:19;2.88;;;1.05;;
33279;SDS011;20403;43.114;12.434;2023-04-29T08:30:44;6.43;;;1.65;;
33279;SDS011;20403;43.114;12.434;2023-04-29T08:33:09;4.65;;;1.65;;
33279;SDS011;20403;43.114;12.434;2023-04-29T08:35:36;6.32;;;1.35;;
33279;SDS011;20403;43.114;12.434;2023-04-29T08:38:03;5.55;;;1.35;;
33279;SDS011;20403;43.114;12.434;2023-04-29T08:40:32;3.97;;;1.55;;
33279;SDS011;20403;43.114;12.434;2023-04-29T08:43:05;9.57;;;1.40;;
33279;SDS011;20403;43.114;12.434;2023-04-29T08:45:33;3.47;;;1.20;;
33279;SDS011;20403;43.114;12.434;2023-04-29T08:48:01;4.32;;;1.50;;
33279;SDS011;20403;43.114;12.434;2023-04-29T08:50:28;5.38;;;1.27;;
33279;SDS011;20403;43.114;12.434;2023-04-29T14:57:02;7.17;;;2.60;;
33279;SDS011;20403;43.114;12.434;2023-04-29T14:59:27;8.65;;;2.03;;
33279;SDS011;20403;43.114;12.434;2023-04-29T15:01:54;5.15;;;2.03;;
33279;SDS011;20403;43.114;12.434;2023-04-29T15:04:20;9.65;;;2.63;;
33279;SDS011;20403;43.114;12.434;2023-04-29T15:06:46;13.23;;;2.65;;
33279;SDS011;20403;43.114;12.434;2023-04-29T15:09:12;9.00;;;2.80;;
33279;SDS011;20403;43.114;12.434;2023-04-29T15:11:37;5.53;;;1.85;;
33279;SDS011;20403;43.114;12.434;2023-04-29T15:14:03;5.57;;;2.22;;
33279;SDS011;20403;43.114;12.434;2023-04-29T15:16:29;3.92;;;1.92;;
33279;SDS011;20403;43.114;12.434;2023-04-29T15:18:55;4.70;;;2.20;;
33279;SDS011;20403;43.114;12.434;2023-04-29T15:21:20;6.32;;;2.17;;
33279;SDS011;20403;43.114;12.434;2023-04-29T15:23:46;4.43;;;1.92;;
33279;SDS011;20403;43.114;12.434;2023-04-29T15:26:11;9.27;;;2.15;;
33279;SDS011;20403;43.114;12.434;2023-04-29T15:28:37;5.07;;;2.00;;
33279;SDS011;20403;43.114;12.434;2023-04-29T15:31:02;5.63;;;2.10;;
33279;SDS011;20403;43.114;12.434;2023-04-29T15:33:29;5.90;;;2.20;;
33279;SDS011;20403;43.114;12.434;2023-04-29T15:35:55;8.90;;;2.40;;
33279;SDS011;20403;43.114;12.434;2023-04-29T15:38:21;7.65;;;2.05;;
33279;SDS011;20403;43.114;12.434;2023-04-29T15:40:47;8.13;;;1.80;;
33279;SDS011;20403;43.114;12.434;2023-04-29T15:43:12;5.15;;;1.80;;
33279;SDS011;20403;43.114;12.434;2023-04-29T15:45:38;5.18;;;2.40;;
33279;SDS011;20403;43.114;12.434;2023-04-29T15:48:04;4.85;;;1.90;;
33279;SDS011;20403;43.114;12.434;2023-04-29T15:50:30;4.95;;;2.60;;
33279;SDS011;20403;43.114;12.434;2023-04-29T15:52:55;9.02;;;3.30;;
33279;SDS011;20403;43.114;12.434;2023-04-29T15:55:22;17.92;;;3.72;;
33279;SDS011;20403;43.114;12.434;2023-04-29T15:57:48;5.78;;;2.40;;
33279;SDS011;20403;43.114;12.434;2023-04-29T16:00:15;5.22;;;2.67;;
33279;SDS011;20403;43.114;12.434;2023-04-29T16:02:41;6.30;;;2.60;;
33279;SDS011;20403;43.114;12.434;2023-04-29T16:05:07;6.00;;;2.60;;
33279;SDS011;20403;43.114;12.434;2023-04-29T16:07:33;6.35;;;2.70;;
33279;SDS011;20403;43.114;12.434;2023-04-29T16:09:58;6.07;;;2.60;;
33279;SDS011;20403;43.114;12.434;2023-04-29T16:12:24;7.45;;;2.47;;
33279;SDS011;20403;43.114;12.434;2023-04-29T16:14:50;5.18;;;2.65;;
33279;SDS011;20403;43.114;12.434;2023-04-29T16:17:16;8.73;;;2.80;;
33279;SDS011;20403;43.114;12.434;2023-04-29T16:19:41;9.27;;;2.80;;
33279;SDS011;20403;43.114;12.434;2023-04-29T16:22:07;8.02;;;3.05;;
33279;SDS011;20403;43.114;12.434;2023-04-29T16:24:32;6.03;;;2.72;;
33279;SDS011;20403;43.114;12.434;2023-04-29T16:26:57;7.68;;;2.58;;
33279;SDS011;20403;43.114;12.434;2023-04-29T16:29:23;9.32;;;2.38;;
33279;SDS011;20403;43.114;12.434;2023-04-29T16:31:49;10.75;;;2.42;;
33279;SDS011;20403;43.114;12.434;2023-04-29T16:34:14;10.45;;;3.15;;
33279;SDS011;20403;43.114;12.434;2023-04-29T16:36:40;10.30;;;2.80;;
33279;SDS011;20403;43.114;12.434;2023-04-29T16:39:05;6.53;;;2.95;;
33279;SDS011;20403;43.114;12.434;2023-04-29T16:41:31;8.52;;;3.47;;
33279;SDS011;20403;43.114;12.434;2023-04-29T16:43:56;8.35;;;3.58;;
33279;SDS011;20403;43.114;12.434;2023-04-29T16:46:23;8.63;;;4.63;;
33279;SDS011;20403;43.114;12.434;2023-04-29T16:48:48;19.50;;;7.95;;
33279;SDS011;20403;43.114;12.434;2023-04-29T16:51:16;30.92;;;18.20;;
33279;SDS011;20403;43.114;12.434;2023-04-29T16:53:42;46.05;;;27.10;;
33279;SDS011;20403;43.114;12.434;2023-04-29T16:56:07;44.20;;;28.42;;
33279;SDS011;20403;43.114;12.434;2023-04-29T16:58:33;40.78;;;26.77;;
33279;SDS011;20403;43.114;12.434;2023-04-29T17:00:58;38.10;;;21.95;;
33279;SDS011;20403;43.114;12.434;2023-04-29T17:03:24;19.42;;;11.95;;
33279;SDS011;20403;43.114;12.434;2023-04-29T17:05:49;18.92;;;10.07;;
33279;SDS011;20403;43.114;12.434;2023-04-29T17:08:15;13.18;;;8.80;;
33279;SDS011;20403;43.114;12.434;2023-04-29T17:10:41;16.88;;;8.50;;
33279;SDS011;20403;43.114;12.434;2023-04-29T17:13:06;18.15;;;6.85;;
33279;SDS011;20403;43.114;12.434;2023-04-29T17:15:31;14.25;;;5.63;;
33279;SDS011;20403;43.114;12.434;2023-04-29T17:17:57;7.38;;;4.00;;
33279;SDS011;20403;43.114;12.434;2023-04-29T17:20:22;9.77;;;4.13;;
33279;SDS011;20403;43.114;12.434;2023-04-29T17:22:48;8.02;;;4.32;;
33279;SDS011;20403;43.114;12.434;2023-04-29T17:25:13;19.50;;;4.47;;
33279;SDS011;20403;43.114;12.434;2023-04-29T17:27:40;8.98;;;4.13;;
33279;SDS011;20403;43.114;12.434;2023-04-29T17:30:08;8.18;;;3.80;;
33279;SDS011;20403;43.114;12.434;2023-04-29T17:32:34;9.50;;;3.90;;
33279;SDS011;20403;43.114;12.434;2023-04-29T17:35:03;8.40;;;4.00;;
33279;SDS011;20403;43.114;12.434;2023-04-29T17:37:30;12.95;;;4.25;;
33279;SDS011;20403;43.114;12.434;2023-04-29T17:39:56;13.55;;;3.97;;
33279;SDS011;20403;43.114;12.434;2023-04-29T17:42:21;9.15;;;3.90;;
33279;SDS011;20403;43.114;12.434;2023-04-29T17:44:47;9.82;;;4.07;;
33279;SDS011;20403;43.114;12.434;2023-04-29T17:47:12;8.88;;;3.80;;
33279;SDS011;20403;43.114;12.434;2023-04-29T17:49:40;13.70;;;3.53;;
33279;SDS011;20403;43.114;12.434;2023-04-29T17:52:05;12.02;;;3.47;;
33279;SDS011;20403;43.114;12.434;2023-04-29T17:54:31;14.43;;;3.30;;
33279;SDS011;20403;43.114;12.434;2023-04-29T17:56:56;6.70;;;3.13;;
33279;SDS011;20403;43.114;12.434;2023-04-29T17:59:23;11.13;;;3.33;;
33279;SDS011;20403;43.114;12.434;2023-04-29T18:01:48;6.63;;;2.65;;
33279;SDS011;20403;43.114;12.434;2023-04-29T18:04:14;17.63;;;3.50;;
33279;SDS011;20403;43.114;12.434;2023-04-29T18:06:39;15.63;;;3.35;;
33279;SDS011;20403;43.114;12.434;2023-04-29T18:09:05;13.52;;;3.83;;
33279;SDS011;20403;43.114;12.434;2023-04-29T18:11:30;8.30;;;3.00;;
33279;SDS011;20403;43.114;12.434;2023-04-29T18:13:56;8.15;;;2.95;;
33279;SDS011;20403;43.114;12.434;2023-04-29T18:16:23;8.40;;;2.90;;
33279;SDS011;20403;43.114;12.434;2023-04-29T18:18:51;12.18;;;2.78;;
33279;SDS011;20403;43.114;12.434;2023-04-29T18:21:23;8.88;;;2.97;;
33279;SDS011;20403;43.114;12.434;2023-04-29T18:23:50;8.10;;;2.63;;
33279;SDS011;20403;43.114;12.434;2023-04-29T18:26:15;5.75;;;2.40;;
33279;SDS011;20403;43.114;12.434;2023-04-29T18:28:42;6.20;;;2.40;;
33279;SDS011;20403;43.114;12.434;2023-04-29T18:31:08;7.65;;;2.92;;
33279;SDS011;20403;43.114;12.434;2023-04-29T18:33:34;7.03;;;3.40;;
33279;SDS011;20403;43.114;12.434;2023-04-29T18:36:01;13.55;;;2.75;;
33279;SDS011;20403;43.114;12.434;2023-04-29T18:38:26;10.13;;;2.60;;
33279;SDS011;20403;43.114;12.434;2023-04-29T18:40:52;13.57;;;3.50;;
33279;SDS011;20403;43.114;12.434;2023-04-29T18:43:17;13.05;;;3.47;;
33279;SDS011;20403;43.114;12.434;2023-04-29T18:45:48;10.10;;;3.47;;
33279;SDS011;20403;43.114;12.434;2023-04-29T18:48:15;21.98;;;3.58;;
33279;SDS011;20403;43.114;12.434;2023-04-29T18:50:41;12.38;;;3.40;;
33279;SDS011;20403;43.114;12.434;2023-04-29T18:53:06;15.35;;;3.22;;
33279;SDS011;20403;43.114;12.434;2023-04-29T18:55:33;8.73;;;3.35;;
33279;SDS011;20403;43.114;12.434;2023-04-29T18:57:59;7.43;;;3.45;;
33279;SDS011;20403;43.114;12.434;2023-04-29T19:00:24;9.25;;;3.47;;
33279;SDS011;20403;43.114;12.434;2023-04-29T19:02:50;14.35;;;3.45;;
33279;SDS011;20403;43.114;12.434;2023-04-29T19:05:15;8.25;;;2.95;;
33279;SDS011;20403;43.114;12.434;2023-04-29T19:07:41;9.45;;;3.10;;
33279;SDS011;20403;43.114;12.434;2023-04-29T19:10:07;13.27;;;3.22;;
33279;SDS011;20403;43.114;12.434;2023-04-29T19:12:33;12.82;;;4.25;;
33279;SDS011;20403;43.114;12.434;2023-04-29T19:14:59;7.72;;;3.58;;
33279;SDS011;20403;43.114;12.434;2023-04-29T19:17:25;10.57;;;3.60;;
33279;SDS011;20403;43.114;12.434;2023-04-29T19:19:50;9.65;;;3.58;;
33279;SDS011;20403;43.114;12.434;2023-04-29T19:22:16;8.30;;;3.35;;
33279;SDS011;20403;43.114;12.434;2023-04-29T19:24:41;8.27;;;3.97;;
33279;SDS011;20403;43.114;12.434;2023-04-29T19:27:07;15.40;;;3.83;;
33279;SDS011;20403;43.114;12.434;2023-04-29T19:29:33;9.55;;;3.55;;
33279;SDS011;20403;43.114;12.434;2023-04-29T19:31:58;6.75;;;3.20;;
33279;SDS011;20403;43.114;12.434;2023-04-29T19:34:24;6.35;;;3.13;;
33279;SDS011;20403;43.114;12.434;2023-04-29T19:36:49;6.00;;;3.55;;
33279;SDS011;20403;43.114;12.434;2023-04-29T19:39:15;8.35;;;3.92;;
33279;SDS011;20403;43.114;12.434;2023-04-29T19:41:41;8.23;;;3.65;;
33279;SDS011;20403;43.114;12.434;2023-04-29T19:44:06;10.95;;;3.60;;
33279;SDS011;20403;43.114;12.434;2023-04-29T19:46:32;8.60;;;3.92;;
33279;SDS011;20403;43.114;12.434;2023-04-29T19:48:57;9.30;;;3.90;;
33279;SDS011;20403;43.114;12.434;2023-04-29T19:51:23;8.60;;;3.70;;
33279;SDS011;20403;43.114;12.434;2023-04-29T19:53:48;9.88;;;3.75;;
33279;SDS011;20403;43.114;12.434;2023-04-29T19:56:15;8.65;;;4.28;;
33279;SDS011;20403;43.114;12.434;2023-04-29T19:58:40;8.52;;;4.10;;
33279;SDS011;20403;43.114;12.434;2023-04-29T20:01:06;9.15;;;4.38;;
33279;SDS011;20403;43.114;12.434;2023-04-29T20:03:31;7.90;;;4.13;;
33279;SDS011;20403;43.114;12.434;2023-04-29T20:05:59;9.60;;;4.70;;
33279;SDS011;20403;43.114;12.434;2023-04-29T20:08:26;9.07;;;3.85;;
33279;SDS011;20403;43.114;12.434;2023-04-29T20:10:52;10.98;;;3.90;;
33279;SDS011;20403;43.114;12.434;2023-04-29T20:13:18;9.88;;;4.97;;
33279;SDS011;20403;43.114;12.434;2023-04-29T20:15:43;10.93;;;3.95;;
33279;SDS011;20403;43.114;12.434;2023-04-29T20:18:08;9.13;;;3.55;;
33279;SDS011;20403;43.114;12.434;2023-04-29T20:20:34;15.23;;;5.10;;
33279;SDS011;20403;43.114;12.434;2023-04-29T20:22:59;17.90;;;5.63;;
33279;SDS011;20403;43.114;12.434;2023-04-29T20:25:25;10.88;;;5.38;;
33279;SDS011;20403;43.114;12.434;2023-04-29T20:27:52;8.38;;;4.80;;
33279;SDS011;20403;43.114;12.434;2023-04-29T20:30:18;10.40;;;3.92;;
33279;SDS011;20403;43.114;12.434;2023-04-29T20:32:44;7.10;;;3.72;;
33279;SDS011;20403;43.114;12.434;2023-04-29T20:35:09;12.13;;;4.60;;
33279;SDS011;20403;43.114;12.434;2023-04-29T20:37:35;10.27;;;4.70;;